Map

Track Data

SID SEASON NUMBER BASIN SUBBASIN NAME ISO_TIME NATURE LAT LON WMO_WIND WMO_PRES WMO_AGENCY TRACK_TYPE DIST2LAND LANDFALL IFLAG USA_AGENCY USA_ATCF_ID USA_LAT USA_LON USA_RECORD USA_STATUS USA_WIND USA_PRES USA_SSHS USA_R34_NE USA_R34_SE USA_R34_SW USA_R34_NW USA_R50_NE USA_R50_SE USA_R50_SW USA_R50_NW USA_R64_NE USA_R64_SE USA_R64_SW USA_R64_NW USA_POCI USA_ROCI USA_RMW USA_EYE TOKYO_LAT TOKYO_LON TOKYO_GRADE TOKYO_WIND TOKYO_PRES TOKYO_R50_DIR TOKYO_R50_LONG TOKYO_R50_SHORT TOKYO_R30_DIR TOKYO_R30_LONG TOKYO_R30_SHORT TOKYO_LAND CMA_LAT CMA_LON CMA_CAT CMA_WIND CMA_PRES HKO_LAT HKO_LON HKO_CAT HKO_WIND HKO_PRES NEWDELHI_LAT NEWDELHI_LON NEWDELHI_GRADE NEWDELHI_WIND NEWDELHI_PRES NEWDELHI_CI NEWDELHI_DP NEWDELHI_POCI REUNION_LAT REUNION_LON REUNION_TYPE REUNION_WIND REUNION_PRES REUNION_TNUM REUNION_CI REUNION_RMW REUNION_R34_NE REUNION_R34_SE REUNION_R34_SW REUNION_R34_NW REUNION_R50_NE REUNION_R50_SE REUNION_R50_SW REUNION_R50_NW REUNION_R64_NE REUNION_R64_SE REUNION_R64_SW REUNION_R64_NW BOM_LAT BOM_LON BOM_TYPE BOM_WIND BOM_PRES BOM_TNUM BOM_CI BOM_RMW BOM_R34_NE BOM_R34_SE BOM_R34_SW BOM_R34_NW BOM_R50_NE BOM_R50_SE BOM_R50_SW BOM_R50_NW BOM_R64_NE BOM_R64_SE BOM_R64_SW BOM_R64_NW BOM_ROCI BOM_POCI BOM_EYE BOM_POS_METHOD BOM_PRES_METHOD NADI_LAT NADI_LON NADI_CAT NADI_WIND NADI_PRES WELLINGTON_LAT WELLINGTON_LON WELLINGTON_WIND WELLINGTON_PRES DS824_LAT DS824_LON DS824_STAGE DS824_WIND DS824_PRES TD9636_LAT TD9636_LON TD9636_STAGE TD9636_WIND TD9636_PRES TD9635_LAT TD9635_LON TD9635_WIND TD9635_PRES TD9635_ROCI NEUMANN_LAT NEUMANN_LON NEUMANN_CLASS NEUMANN_WIND NEUMANN_PRES MLC_LAT MLC_LON MLC_CLASS MLC_WIND MLC_PRES USA_GUST BOM_GUST BOM_GUST_PER REUNION_GUST REUNION_GUST_PER USA_SEAHGT USA_SEARAD_NE USA_SEARAD_SE USA_SEARAD_SW USA_SEARAD_NW STORM_SPEED STORM_DIR
1941172N07153 1941 28 WP MM NOT_NAMED 1941-06-20 21:00:00 NR 6.70000 153.000 main 1078 1068 __________O___ -1 6.70000 153.000 2 11 270
1941172N07153 1941 28 WP MM NOT_NAMED 1941-06-21 00:00:00 NR 6.69892 152.430 main 1066 1059 __________P___ -1 6.69892 152.430 2 11 270
1941172N07153 1941 28 WP MM NOT_NAMED 1941-06-21 03:00:00 NR 6.70801 151.858 main 1059 1054 __________P___ -1 6.70801 151.858 2 11 272
1941172N07153 1941 28 WP MM NOT_NAMED 1941-06-21 06:00:00 NR 6.73810 151.282 main 1054 1053 __________P___ -1 6.73810 151.282 2 12 275
1941172N07153 1941 28 WP MM NOT_NAMED 1941-06-21 09:00:00 NR 6.80000 150.700 main 1062 1051 __________O___ -1 6.80000 150.700 2 12 278
1941172N07153 1941 28 WP MM NOT_NAMED 1941-06-21 12:00:00 NR 6.90324 150.111 main 1052 1046 __________P___ -1 6.90324 150.111 2 12 282
1941172N07153 1941 28 WP MM NOT_NAMED 1941-06-21 15:00:00 NR 7.05222 149.515 main 1057 1050 __________P___ -1 7.05222 149.515 2 12 286
1941172N07153 1941 28 WP MM NOT_NAMED 1941-06-21 18:00:00 NR 7.25008 148.911 main 1066 1063 __________P___ -1 7.25008 148.911 2 13 290
1941172N07153 1941 28 WP MM NOT_NAMED 1941-06-21 21:00:00 NR 7.50000 148.300 main 1080 1079 __________O___ -1 7.50000 148.300 2 13 294
1941172N07153 1941 28 WP MM NOT_NAMED 1941-06-22 00:00:00 NR 7.80350 147.686 main 1109 1109 __________P___ -1 7.80350 147.686 2 14 298
1941172N07153 1941 28 WP MM NOT_NAMED 1941-06-22 03:00:00 NR 8.15464 147.065 main 1154 1154 __________P___ -1 8.15464 147.065 2 14 300
1941172N07153 1941 28 WP MM NOT_NAMED 1941-06-22 06:00:00 NR 8.52846 146.436 main 1188 1188 __________P___ -1 8.52846 146.436 2 15 301
1941172N07153 1941 28 WP MM NOT_NAMED 1941-06-22 09:00:00 NR 8.90000 145.800 main 1235 1235 __________O___ -1 8.90000 145.800 2 14 300
1941172N07153 1941 28 WP MM NOT_NAMED 1941-06-22 12:00:00 NR 9.21065 145.221 main 1275 1275 __________P___ -1 9.21065 145.221 2 13 298
1941172N07153 1941 28 WP MM NOT_NAMED 1941-06-22 15:00:00 NR 9.51801 144.625 main 1318 1318 __________P___ -1 9.51801 144.625 2 14 297
1941172N07153 1941 28 WP MM NOT_NAMED 1941-06-22 18:00:00 NR 9.84145 143.967 main 1364 1364 __________P___ -1 9.84145 143.967 2 16 296
1941172N07153 1941 28 WP MM NOT_NAMED 1941-06-22 21:00:00 NR 10.2000 143.200 main 1428 1428 __________O___ -1 10.2000 143.200 2 18 296
1941172N07153 1941 28 WP MM NOT_NAMED 1941-06-23 00:00:00 NR 10.6627 142.290 main 1451 1444 __________P___ -1 10.6627 142.290 2 21 297
1941172N07153 1941 28 WP MM NOT_NAMED 1941-06-23 03:00:00 NR 11.1522 141.266 main 1471 1460 __________P___ -1 11.1522 141.266 2 23 294
1941172N07153 1941 28 WP MM NOT_NAMED 1941-06-23 06:00:00 NR 11.6154 140.159 main 1468 1445 __________P___ -1 11.6154 140.159 2 24 291
1941172N07153 1941 28 WP MM NOT_NAMED 1941-06-23 09:00:00 NR 12.0000 139.000 main 1434 1311 __________O___ -1 12.0000 139.000 2 25 285
1941172N07153 1941 28 WP MM NOT_NAMED 1941-06-23 12:00:00 NR 12.2589 137.717 main 1304 1176 __________P___ -1 12.2589 137.717 2 26 280
1941172N07153 1941 28 WP MM NOT_NAMED 1941-06-23 15:00:00 NR 12.4312 136.412 main 1165 1048 __________P___ -1 12.4312 136.412 2 25 276
1941172N07153 1941 28 WP MM NOT_NAMED 1941-06-23 18:00:00 NR 12.5374 135.201 main 1037 932 __________P___ -1 12.5374 135.201 2 22 274
1941172N07153 1941 28 WP MM NOT_NAMED 1941-06-23 21:00:00 NR 12.6000 134.200 main 932 870 __________O___ -1 12.6000 134.200 2 16 274
1941172N07153 1941 28 WP MM NOT_NAMED 1941-06-24 00:00:00 NR 12.6614 133.576 main 870 827 __________P___ -1 12.6614 133.576 2 10 275
1941172N07153 1941 28 WP MM NOT_NAMED 1941-06-24 03:00:00 NR 12.6906 133.162 main 827 796 __________P___ -1 12.6906 133.162 2 7 273
1941172N07153 1941 28 WP MM NOT_NAMED 1941-06-24 06:00:00 NR 12.6998 132.842 main 785 754 __________P___ -1 12.6998 132.842 2 6 271
1941172N07153 1941 28 WP MM NOT_NAMED 1941-06-24 09:00:00 NR 12.7000 132.500 main 754 701 __________O___ -1 12.7000 132.500 2 9 270
1941172N07153 1941 28 WP MM NOT_NAMED 1941-06-24 12:00:00 NR 12.6953 131.948 main 690 638 __________P___ -1 12.6953 131.948 2 11 269
1941172N07153 1941 28 WP MM NOT_NAMED 1941-06-24 15:00:00 NR 12.6855 131.357 main 638 576 __________P___ -1 12.6855 131.357 2 12 269
1941172N07153 1941 28 WP MM NOT_NAMED 1941-06-24 18:00:00 NR 12.6828 130.763 main 576 513 __________P___ -1 12.6828 130.763 2 11 271
1941172N07153 1941 28 WP MM NOT_NAMED 1941-06-24 21:00:00 NR 12.7000 130.200 main 513 459 __________O___ -1 12.7000 130.200 2 10 273
1941172N07153 1941 28 WP MM NOT_NAMED 1941-06-25 00:00:00 NR 12.7325 129.718 main 459 418 __________P___ -1 12.7325 129.718 2 9 276
1941172N07153 1941 28 WP MM NOT_NAMED 1941-06-25 03:00:00 NR 12.7892 129.270 main 418 377 __________P___ -1 12.7892 129.270 2 9 280
1941172N07153 1941 28 WP MM NOT_NAMED 1941-06-25 06:00:00 NR 12.8763 128.837 main 366 327 __________P___ -1 12.8763 128.837 2 9 284
1941172N07153 1941 28 WP MM NOT_NAMED 1941-06-25 09:00:00 NR 13.0000 128.400 main 327 283 __________O___ -1 13.0000 128.400 4 9 287
1941172N07153 1941 28 WP MM NOT_NAMED 1941-06-25 12:00:00 NR 13.1600 127.912 main 283 240 __________P___ -1 13.1600 127.912 4 10 290
1941172N07153 1941 28 WP MM NOT_NAMED 1941-06-25 15:00:00 NR 13.3551 127.420 main 246 218 __________P___ -1 13.3551 127.420 4 10 294
1941172N07153 1941 28 WP MM NOT_NAMED 1941-06-25 18:00:00 NR 13.5726 126.943 main 218 202 __________P___ -1 13.5726 126.943 4 10 296
1941172N07153 1941 28 WP MM NOT_NAMED 1941-06-25 21:00:00 NR 13.8000 126.500 main 202 183 __________O___ -1 13.8000 126.500 4 9 298
1941172N07153 1941 28 WP MM NOT_NAMED 1941-06-26 00:00:00 NR 14.0094 126.098 main 183 154 __________P___ -1 14.0094 126.098 4 9 300
1941172N07153 1941 28 WP MM NOT_NAMED 1941-06-26 03:00:00 NR 14.2272 125.732 main 144 121 __________P___ -1 14.2272 125.732 4 8 303
1941172N07153 1941 28 WP MM NOT_NAMED 1941-06-26 06:00:00 NR 14.4564 125.401 main 127 116 __________P___ -1 14.4564 125.401 4 8 308
1941172N07153 1941 28 WP MM NOT_NAMED 1941-06-26 09:00:00 NR 14.7000 125.100 main 116 110 __________O___ -1 14.7000 125.100 4 8 313
1941172N07153 1941 28 WP MM NOT_NAMED 1941-06-26 12:00:00 NR 14.9725 124.829 main 124 124 __________P___ -1 14.9725 124.829 4 8 318
1941172N07153 1941 28 WP MM NOT_NAMED 1941-06-26 15:00:00 NR 15.2571 124.585 main 149 147 __________P___ -1 15.2571 124.585 4 7 321
1941172N07153 1941 28 WP MM NOT_NAMED 1941-06-26 18:00:00 NR 15.5381 124.348 main 167 167 __________P___ -1 15.5381 124.348 4 7 319
1941172N07153 1941 28 WP MM NOT_NAMED 1941-06-26 21:00:00 NR 15.8000 124.100 main 201 171 __________O___ -1 15.8000 124.100 4 7 314
1941172N07153 1941 28 WP MM NOT_NAMED 1941-06-27 00:00:00 NR 16.0173 123.826 main 171 141 __________P___ -1 16.0173 123.826 4 7 307
1941172N07153 1941 28 WP MM NOT_NAMED 1941-06-27 03:00:00 NR 16.2147 123.537 main 132 93 __________P___ -1 16.2147 123.537 4 7 304
1941172N07153 1941 28 WP MM NOT_NAMED 1941-06-27 06:00:00 NR 16.4048 123.229 main 93 54 __________P___ -1 16.4048 123.229 4 7 302
1941172N07153 1941 28 WP MM NOT_NAMED 1941-06-27 09:00:00 NR 16.6000 122.900 main 54 15 __________O___ -1 16.6000 122.900 4 8 302
1941172N07153 1941 28 WP MM NOT_NAMED 1941-06-27 12:00:00 NR 16.8054 122.562 main 15 0 __________P___ -1 16.8054 122.562 4 8 302
1941172N07153 1941 28 WP MM NOT_NAMED 1941-06-27 15:00:00 NR 17.0196 122.202 main 0 0 __________P___ -1 17.0196 122.202 4 8 302
1941172N07153 1941 28 WP MM NOT_NAMED 1941-06-27 18:00:00 NR 17.2490 121.815 main 0 0 __________P___ -1 17.2490 121.815 4 9 302
1941172N07153 1941 28 WP MM NOT_NAMED 1941-06-27 21:00:00 NR 17.5000 121.400 main 0 0 __________O___ -1 17.5000 121.400 4 10 303
1941172N07153 1941 28 WP MM NOT_NAMED 1941-06-28 00:00:00 NR 17.7909 120.938 main 0 0 __________P___ -1 17.7909 120.938 4 11 304
1941172N07153 1941 28 WP MM NOT_NAMED 1941-06-28 03:00:00 NR 18.1004 120.451 main 0 0 __________P___ -1 18.1004 120.451 4 11 304
1941172N07153 1941 28 WP MM NOT_NAMED 1941-06-28 06:00:00 NR 18.4096 119.963 main 62 62 __________P___ -1 18.4096 119.963 4 11 304
1941172N07153 1941 28 WP MM NOT_NAMED 1941-06-28 09:00:00 NR 18.7000 119.500 main 120 120 __________O___ -1 18.7000 119.500 4 10 303
1941172N07153 1941 28 WP MM NOT_NAMED 1941-06-28 12:00:00 NR 18.9378 119.103 main 167 167 __________P___ -1 18.9378 119.103 4 9 302
1941172N07153 1941 28 WP MM NOT_NAMED 1941-06-28 15:00:00 NR 19.1566 118.734 main 219 219 __________P___ -1 19.1566 118.734 4 8 302
1941172N07153 1941 28 WP MM NOT_NAMED 1941-06-28 18:00:00 NR 19.3722 118.372 main 257 257 __________P___ -1 19.3722 118.372 4 8 303
1941172N07153 1941 28 WP MM NOT_NAMED 1941-06-28 21:00:00 NR 19.6000 118.000 main 304 304 __________O___ -1 19.6000 118.000 4 9 304
1941172N07153 1941 28 WP MM NOT_NAMED 1941-06-29 00:00:00 NR 19.8561 117.609 main 354 321 __________P___ -1 19.8561 117.609 4 9 305
1941172N07153 1941 28 WP MM NOT_NAMED 1941-06-29 03:00:00 NR 20.1267 117.202 main 321 277 __________P___ -1 20.1267 117.202 4 10 305
1941172N07153 1941 28 WP MM NOT_NAMED 1941-06-29 06:00:00 NR 20.4090 116.768 main 277 229 __________P___ -1 20.4090 116.768 4 10 304
1941172N07153 1941 28 WP MM NOT_NAMED 1941-06-29 09:00:00 NR 20.7000 116.300 main 229 190 __________O___ -1 20.7000 116.300 4 11 302
1941172N07153 1941 28 WP MM NOT_NAMED 1941-06-29 12:00:00 NR 20.9891 115.770 main 190 137 __________P___ -1 20.9891 115.770 4 12 300
1941172N07153 1941 28 WP MM NOT_NAMED 1941-06-29 15:00:00 NR 21.2855 115.207 main 137 88 __________P___ -1 21.2855 115.207 4 12 300
1941172N07153 1941 28 WP MM NOT_NAMED 1941-06-29 18:00:00 NR 21.5891 114.641 main 84 45 __________P___ -1 21.5891 114.641 4 12 301
1941172N07153 1941 28 WP MM NOT_NAMED 1941-06-29 21:00:00 NR 21.9000 114.100 main 49 10 __________O___ -1 21.9000 114.100 4 12 302
1941172N07153 1941 28 WP MM NOT_NAMED 1941-06-30 00:00:00 NR 22.1972 113.592 main 10 0 __________P___ -1 22.1972 113.592 4 11 304
1941172N07153 1941 28 WP MM NOT_NAMED 1941-06-30 03:00:00 NR 22.5047 113.117 main 0 0 __________P___ -1 22.5047 113.117 4 11 307
1941172N07153 1941 28 WP MM NOT_NAMED 1941-06-30 06:00:00 NR 22.8349 112.683 main 0 0 __________P___ -1 22.8349 112.683 4 10 313
1941172N07153 1941 28 WP MM NOT_NAMED 1941-06-30 09:00:00 NR 23.2000 112.300 main 0 0 __________O___ -1 23.2000 112.300 4 11 315
1941172N07153 1941 28 WP MM NOT_NAMED 1941-06-30 12:00:00 NR 23.5812 111.867 main 0 0 __________P___ -1 23.5812 111.867 4 11 318
1941172N07153 1941 28 WP MM NOT_NAMED 1941-06-30 15:00:00 NR 24.0019 111.499 main 0 0 __________P___ -1 24.0019 111.499 4 11 328
1941172N07153 1941 28 WP MM NOT_NAMED 1941-06-30 18:00:00 NR 24.4716 111.256 main 0 0 __________P___ -1 24.4716 111.256 4 10 345
1941172N07153 1941 28 WP MM NOT_NAMED 1941-06-30 21:00:00 NR 25.0000 111.200 main 0 0 __________O___ -1 25.0000 111.200 4 12 6
1941172N07153 1941 28 WP MM NOT_NAMED 1941-07-01 00:00:00 NR 25.6374 111.394 main 0 0 __________P___ -1 25.6374 111.394 4 14 21
1941172N07153 1941 28 WP MM NOT_NAMED 1941-07-01 03:00:00 NR 26.3231 111.777 main 0 0 __________P___ -1 26.3231 111.777 4 16 30
1941172N07153 1941 28 WP MM NOT_NAMED 1941-07-01 06:00:00 NR 26.9972 112.272 main 0 0 __________P___ -1 26.9972 112.272 4 16 36
1941172N07153 1941 28 WP MM NOT_NAMED 1941-07-01 09:00:00 NR 27.6000 112.800 main 0 0 __________O___ -1 27.6000 112.800 4 12 38
1941172N07153 1941 28 WP MM NOT_NAMED 1941-07-01 12:00:00 NR 27.9300 113.081 main 0 0 __________P___ -1 27.9300 113.081 4 8 41
1941172N07153 1941 28 WP MM NOT_NAMED 1941-07-01 15:00:00 NR 28.2043 113.397 main 0 0 __________P___ -1 28.2043 113.397 4 9 48
1941172N07153 1941 28 WP MM NOT_NAMED 1941-07-01 18:00:00 NR 28.5519 113.863 main 0 0 __________P___ -1 28.5519 113.863 4 14 50
1941172N07153 1941 28 WP MM NOT_NAMED 1941-07-01 21:00:00 NR 29.1000 114.600 main 0 0 __________O___ -1 29.1000 114.600 4 22 52
1941172N07153 1941 28 WP MM NOT_NAMED 1941-07-02 00:00:00 NR 29.9410 115.868 main 0 0 __________P___ -1 29.9410 115.868 4 31 52
1941172N07153 1941 28 WP MM NOT_NAMED 1941-07-02 03:00:00 NR 30.9844 117.420 main 0 0 __________P___ -1 30.9844 117.420 4 35 51
1941172N07153 1941 28 WP MM NOT_NAMED 1941-07-02 06:00:00 NR 32.1830 119.065 main 0 0 __________P___ -1 32.1830 119.065 4 37 47
1941172N07153 1941 28 WP MM NOT_NAMED 1941-07-02 09:00:00 NR 33.5000 120.600 main 0 0 __________O___ -1 33.5000 120.600 7 36 36
1941172N07153 1941 28 WP MM NOT_NAMED 1941-07-02 12:00:00 NR 35.0450 121.587 main 142 23 __________P___ -1 35.0450 121.587 7 35 25
1941172N07153 1941 28 WP MM NOT_NAMED 1941-07-02 15:00:00 NR 36.6840 122.453 main 20 8 __________P___ -1 36.6840 122.453 7 35 24
1941172N07153 1941 28 WP MM NOT_NAMED 1941-07-02 18:00:00 NR 38.2326 123.392 main 113 23 __________P___ -1 38.2326 123.392 7 33 31
1941172N07153 1941 28 WP MM NOT_NAMED 1941-07-02 21:00:00 NR 39.5000 124.600 main 11 0 __________O___ -1 39.5000 124.600 7 31 51
1941172N07153 1941 28 WP MM NOT_NAMED 1941-07-03 00:00:00 NR 40.1622 126.511 main 0 0 __________P___ -1 40.1622 126.511 7 33 72
1941172N07153 1941 28 WP MM NOT_NAMED 1941-07-03 03:00:00 NR 40.5110 128.668 main 0 0 __________P___ -1 40.5110 128.668 7 33 80
1941172N07153 1941 28 WP MM NOT_NAMED 1941-07-03 06:00:00 NR 40.7249 130.811 main 93 93 __________P___ -1 40.7249 130.811 7 31 81
1941172N07153 1941 28 WP MM NOT_NAMED 1941-07-03 09:00:00 NR 41.0000 132.700 main 189 134 __________O___ -1 41.0000 132.700 7 25 69
1941172N07153 1941 28 WP MM NOT_NAMED 1941-07-03 12:00:00 NR 41.6242 133.979 main 135 101 __________P___ -1 41.6242 133.979 7 22 52
1941172N07153 1941 28 WP MM NOT_NAMED 1941-07-03 15:00:00 NR 42.3685 135.004 main 101 71 __________P___ -1 42.3685 135.004 7 21 43
1941172N07153 1941 28 WP MM NOT_NAMED 1941-07-03 18:00:00 NR 43.1801 135.952 main 79 77 __________P___ -1 43.1801 135.952 7 22 42
1941172N07153 1941 28 WP MM NOT_NAMED 1941-07-03 21:00:00 NR 44.0000 137.000 main 84 84 __________O___ -1 44.0000 137.000 7 24 51
1941172N07153 1941 28 WP MM NOT_NAMED 1941-07-04 00:00:00 NR 44.7115 138.570 main 137 108 __________P___ -1 44.7115 138.570 7 27 59
1941172N07153 1941 28 WP MM NOT_NAMED 1941-07-04 03:00:00 NR 45.4050 140.258 main 101 15 __________P___ -1 45.4050 140.258 7 27 59
1941172N07153 1941 28 WP MM NOT_NAMED 1941-07-04 06:00:00 NR 46.0936 141.894 main 7 0 __________P___ -1 46.0936 141.894 7 25 57
1941172N07153 1941 28 WP MM NOT_NAMED 1941-07-04 09:00:00 NR 46.8000 143.300 main 0 0 __________O___ -1 46.8000 143.300 7 22 49
1941172N07153 1941 28 WP MM NOT_NAMED 1941-07-04 12:00:00 NR 47.5486 144.339 main 99 39 __________P___ -1 47.5486 144.339 7 19 38
1941172N07153 1941 28 WP MM NOT_NAMED 1941-07-04 15:00:00 NR 48.3396 145.066 main 44 36 __________P___ -1 48.3396 145.066 7 18 27
1941172N07153 1941 28 WP MM NOT_NAMED 1941-07-04 18:00:00 NR 49.1618 145.583 main 73 73 __________P___ -1 49.1618 145.583 7 18 20
1941172N07153 1941 28 WP MM NOT_NAMED 1941-07-04 21:00:00 NR 50.0000 146.000 main 139 __________O___ -1 50.0000 146.000 7 18 18

Digital Typhoon Data and Search

About IBTrACS Database

This database is a web-friendly format of International Best Track Archive for Climate Stewardship (IBTrACS), a global best track data archive curated by NOAA dating back to 1842.

Updated: 2021-10-21